METAR Data
IDs: Format: Raw Decoded Include TAF

Data at: 1745 UTC 25 Mar 2019

KUVA 251735Z AUTO 03003KT 7SM BKN013 OVC022 22/19 A3016 RMK AO2 T02190193
KUVA 251715Z AUTO 04005KT 7SM OVC015 21/19 A3016 RMK AO2 T02100192
KUVA 251655Z AUTO 04004KT 5SM BR OVC013 20/19 A3017 RMK AO2 T01990193
KUVA 251635Z AUTO 03005KT 7SM OVC011 20/19 A3016 RMK AO2 T01970193
KUVA 251615Z AUTO 00000KT 7SM OVC009 20/19 A3016 RMK AO2 T01950191
KUVA 251555Z AUTO 00000KT 5SM BR OVC009 19/19 A3015 RMK AO2 T01940192
KUVA 251535Z AUTO 00000KT 5SM BR SCT005 OVC011 19/19 A3014 RMK AO2 T01930193
KUVA 251515Z AUTO 00000KT 4SM BR BKN003 OVC011 19/19 A3014 RMK AO2 T01920192
KUVA 251455Z AUTO 05003KT 3SM BR OVC003 19/19 A3013 RMK AO2 T01900190
KUVA 251435Z AUTO 06004KT 2 1/2SM BR OVC001 19/19 A3013 RMK AO2 T01880188
KUVA 251415Z AUTO 07003KT 2SM BR OVC001 19/19 A3011 RMK AO2 T01860186
KUVA 251355Z AUTO 00000KT 2SM BR OVC001 19/19 A3010 RMK AO2 T01850185
KUVA 251335Z AUTO 00000KT 1/2SM FG OVC001 18/18 A3010 RMK AO2 T01830183
KUVA 251315Z AUTO 00000KT 1/2SM FG BKN001 OVC007 18/18 A3009 RMK AO2 T01810181
KUVA 251255Z AUTO 08003KT 1/4SM -DZ OVC001 18/18 A3009 RMK AO2 T01800180
KUVA 251235Z AUTO 07003KT 1/2SM DZ OVC001 18/18 A3008 RMK AO2 T01800180
KUVA 251215Z AUTO 08004KT 1/2SM RA OVC001 18/18 A3008 RMK AO2 T01800180
KUVA 251155Z AUTO 07003KT 1/4SM FG OVC001 18/18 A3007 RMK AO2 T01800180 10180 20160
KUVA 251135Z AUTO 07003KT 1/4SM DZ OVC001 18/18 A3007 RMK AO2 T01800180
KUVA 251115Z AUTO 10003KT 1/4SM DZ OVC001 18/18 A3006 RMK AO2 T01780178
KUVA 251055Z AUTO 07003KT 1/4SM DZ OVC001 18/18 A3006 RMK AO2 T01770177
KUVA 251035Z AUTO 08004KT 1/4SM DZ OVC001 18/18 A3006 RMK AO2 T01760176
KUVA 251015Z AUTO 08003KT 1/4SM DZ OVC001 18/18 A3006 RMK AO2 T01750175
KUVA 250955Z AUTO 06005KT 1/2SM RA OVC001 17/17 A3005 RMK AO2 T01720172
KUVA 250935Z AUTO 05004KT 1/2SM FG OVC001 17/17 A3006 RMK AO2 T01700170
KUVA 250915Z AUTO 08005KT 1 3/4SM BR BKN001 BKN005 17/17 A3005 RMK AO2 T01650165
KUVA 250855Z AUTO 06006KT 2 1/2SM BR CLR 16/16 A3005 RMK AO2 T01600160
KUVA 250835Z AUTO 06005KT 2 1/2SM BR CLR 16/16 A3005 RMK AO2 T01610161
KUVA 250815Z AUTO 07004KT 3SM BR CLR 16/16 A3005 RMK AO2 T01610161
KUVA 250755Z AUTO 06005KT 4SM BR CLR 16/16 A3005 RMK AO2 T01620162
KUVA 250735Z AUTO 06006KT 5SM BR CLR 17/17 A3006 RMK AO2 T01650165
KUVA 250715Z AUTO 07004KT 5SM BR CLR 17/17 A3007 RMK AO2 T01690169
KUVA 250655Z AUTO 07005KT 7SM CLR 17/17 A3007 RMK AO2 T01700170
KUVA 250635Z AUTO 05006KT 7SM CLR 17/17 A3007 RMK AO2 T01660165
KUVA 250615Z AUTO 06004KT 7SM CLR 17/17 A3007 RMK AO2 T01710167
KUVA 250555Z AUTO 04004KT 7SM CLR 17/17 A3007 RMK AO2 T01710168 10240 20171 402470171
KUVA 250535Z AUTO 08003KT 10SM CLR 18/17 A3007 RMK AO2 T01800172
KUVA 250515Z AUTO 10004KT 10SM CLR 18/17 A3007 RMK AO2 T01830173
KUVA 250455Z AUTO 09005KT 10SM CLR 18/17 A3007 RMK AO2 T01820172
KUVA 250435Z AUTO 07004KT 10SM CLR 18/17 A3007 RMK AO2 T01810170
KUVA 250415Z AUTO 06006KT 10SM SCT050 19/17 A3007 RMK AO2 T01850173
KUVA 250355Z AUTO 05004KT 10SM OVC048 19/18 A3006 RMK AO2 T01870175
KUVA 250335Z AUTO 03003KT 10SM BKN048 19/17 A3006 RMK AO2 T01850171
KUVA 250315Z AUTO 04004KT 10SM CLR 19/17 A3005 RMK AO2 T01860171
KUVA 250255Z AUTO 02004KT 10SM SCT048 19/17 A3004 RMK AO2 T01900172
KUVA 250235Z AUTO 02004KT 10SM CLR 19/17 A3003 RMK AO2 T01870169
KUVA 250215Z AUTO 03004KT 10SM CLR 20/17 A3003 RMK AO2 T01960172
KUVA 250155Z AUTO 03004KT 10SM CLR 20/17 A3001 RMK AO2 T02020174
KUVA 250135Z AUTO 05004KT 10SM CLR 21/18 A3000 RMK AO2 T02060177
KUVA 250115Z AUTO 05004KT 10SM CLR 21/18 A2999 RMK AO2 T02120180
KUVA 250055Z AUTO 05004KT 10SM CLR 22/18 A2999 RMK AO2 T02200180
KUVA 250035Z AUTO 08004KT 10SM CLR 23/18 A2999 RMK AO2 T02280181
KUVA 250015Z AUTO 09007KT 10SM CLR 24/18 A2999 RMK AO2 T02380180
KUVA 242355Z AUTO 12009KT 10SM CLR 24/17 A2999 RMK AO2 T02400174 10247 20203
KUVA 242335Z AUTO 11006KT 10SM CLR 24/18 A2999 RMK AO2 T02410181
KUVA 242315Z AUTO 12008KT 10SM SCT038 24/18 A3000 RMK AO2 T02430180
KUVA 242255Z AUTO 11004KT 10SM OVC038 24/18 A3001 RMK AO2 T02410181
KUVA 242235Z AUTO 10004KT 10SM OVC036 24/18 A3001 RMK AO2 T02400181
KUVA 242215Z AUTO 00000KT 10SM OVC036 24/18 A3002 RMK AO2 T02400182
KUVA 242155Z AUTO 06004KT 10SM OVC033 24/18 A3002 RMK AO2 T02390184
KUVA 242135Z AUTO 10004KT 10SM OVC028 24/18 A3002 RMK AO2 T02350184
KUVA 242115Z AUTO 11004KT 10SM OVC026 23/18 A3003 RMK AO2 T02290182
KUVA 242055Z AUTO 00000KT 10SM OVC024 23/18 A3004 RMK AO2 T02300183
KUVA 242035Z AUTO 05003KT 10SM OVC024 23/18 A3004 RMK AO2 T02280182
KUVA 242015Z AUTO 11004KT 10SM OVC022 23/18 A3004 RMK AO2 T02290182
KUVA 241955Z AUTO 11004KT 10SM OVC022 23/18 A3005 RMK AO2 T02250182
KUVA 241935Z AUTO 11004KT 10SM OVC020 22/18 A3006 RMK AO2 T02200181
KUVA 241915Z AUTO 13004KT 10SM OVC018 22/18 A3007 RMK AO2 T02210181
KUVA 241855Z AUTO 11003KT 10SM OVC018 22/18 A3008 RMK AO2 T02160179
KUVA 241835Z AUTO 12003KT 10SM OVC016 21/18 A3008 RMK AO2 T02110178
KUVA 241815Z AUTO 15005KT 10SM OVC014 21/18 A3009 RMK AO2 T02080178
KUVA 241755Z AUTO 16003KT 10SM OVC012 20/18 A3010 RMK AO2 T02030177 10204 20172
KUVA 241735Z AUTO 12005KT 10SM OVC012 20/18 A3010 RMK AO2 T02000176
KUVA 241715Z AUTO 16005KT 10SM OVC012 20/18 A3011 RMK AO2 T02000177
KUVA 241655Z AUTO 14005KT 10SM OVC010 20/18 A3011 RMK AO2 T01950176
KUVA 241635Z AUTO 14004KT 10SM OVC008 19/18 A3012 RMK AO2 T01910175
KUVA 241615Z AUTO 15004KT 10SM OVC008 19/18 A3012 RMK AO2 T01890175
KUVA 241555Z AUTO 14004KT 10SM OVC008 19/18 A3012 RMK AO2 T01850175
KUVA 241535Z AUTO 13005KT 10SM OVC008 19/18 A3012 RMK AO2 T01850175
KUVA 241515Z AUTO 14005KT 5SM BR OVC008 18/17 A3012 RMK AO2 T01810174
KUVA 241455Z AUTO 15005KT 4SM BR OVC006 18/18 A3011 RMK AO2 T01760175
KUVA 241435Z AUTO 16004KT 3SM BR OVC006 18/18 A3011 RMK AO2 T01750175
KUVA 241415Z AUTO 13005KT 1 3/4SM BR OVC005 17/17 A3010 RMK AO2 T01730173
KUVA 241355Z AUTO 13004KT 2 1/2SM BR BKN003 OVC007 17/17 A3009 RMK AO2 T01720172
KUVA 241335Z AUTO 14005KT 2 1/2SM BR OVC003 17/17 A3009 RMK AO2 T01720172
KUVA 241315Z AUTO 12004KT 2SM BR OVC003 17/17 A3008 RMK AO2 T01720171
KUVA 241255Z AUTO 15005KT 5SM BR OVC005 17/17 A3008 RMK AO2 T01730171
KUVA 241235Z AUTO 16005KT 5SM BR OVC005 17/17 A3008 RMK AO2 T01740171
KUVA 241215Z AUTO 15006KT 7SM OVC005 18/17 A3007 RMK AO2 T01750171
KUVA 241155Z AUTO 14006KT 7SM OVC005 18/17 A3006 RMK AO2 T01760171 10185 20174
KUVA 241135Z AUTO 15008KT 10SM OVC007 18/17 A3006 RMK AO2 T01770171
KUVA 241115Z AUTO 14006KT 10SM OVC007 18/17 A3005 RMK AO2 T01800172
KUVA 241055Z AUTO 13006KT 10SM OVC007 18/17 A3005 RMK AO2 T01800172
KUVA 241035Z AUTO 13006KT 10SM OVC007 18/17 A3005 RMK AO2 T01800171
KUVA 241015Z AUTO 13006KT 10SM OVC007 18/17 A3005 RMK AO2 T01800171
KUVA 240955Z AUTO 13008KT 10SM OVC009 18/17 A3005 RMK AO2 T01800171
KUVA 240935Z AUTO 13007KT 10SM OVC009 18/17 A3004 RMK AO2 T01810171
KUVA 240915Z AUTO 12009KT 10SM OVC009 18/17 A3004 RMK AO2 T01810171
KUVA 240855Z AUTO 12007KT 10SM OVC009 18/17 A3004 RMK AO2 T01810172
KUVA 240835Z AUTO 11006KT 10SM OVC009 18/17 A3004 RMK AO2 T01820172
KUVA 240815Z AUTO 12006KT 10SM OVC009 18/17 A3004 RMK AO2 T01830172
KUVA 240755Z AUTO 12006KT 10SM OVC011 18/17 A3005 RMK AO2 T01830172
KUVA 240735Z AUTO 14006KT 10SM OVC011 19/17 A3005 RMK AO2 T01850172
KUVA 240715Z AUTO 13006KT 10SM OVC011 19/17 A3005 RMK AO2 T01850172
KUVA 240655Z AUTO 14009KT 10SM OVC013 19/17 A3005 RMK AO2 T01850172
KUVA 240635Z AUTO 13007KT 10SM OVC015 19/17 A3005 RMK AO2 T01850172
KUVA 240615Z AUTO 13007KT 10SM BKN015 OVC028 18/17 A3005 RMK AO2 T01760168
KUVA 240555Z AUTO 11005KT 10SM OVC028 17/17 A3006 RMK AO2 T01730166 10220 20167 402320158